Gas City, Indiana
Current Conditions -  °F | °C
As of 11:35 PM on Saturday 25 Oct 2014 (Local Time) from KMZZ Reporting Station
Clear Clear  
Wind Chill: 53°   Ceiling: Unl
Heat Index: 53°   Visibility: 7mi
Dew Point: 36°   Wind: 7mph
Humidity: 52%   Direction: 300°WNW
Pressure: 29.95"   Gusts: NA
Location:  40.49°N, 85.61°W
Report Text: KMZZ 260335Z AUTO 30006KT 7SM CLR 12/02 A2995 RMK AO2 T01180023
Loading
Personal Weather Stations






























Interactive Weather Map
Tropical Storm Tracking
New forecast layout! Learn more

10-Day Weather Forecast

Advertisements
Track Severe Weather on mobile